createdAt,value
2022-09-29T00:00:20.233Z,99.90
2022-09-29T00:02:50.433Z,99.90
2022-09-29T00:05:20.833Z,99.90
2022-09-29T00:07:50.968Z,99.90
2022-09-29T00:10:21.348Z,99.90
2022-09-29T00:12:54.320Z,99.90
2022-09-29T00:15:24.473Z,99.90
2022-09-29T00:18:14.084Z,99.90
2022-09-29T00:20:44.925Z,99.90
2022-09-29T00:23:15.043Z,99.90
2022-09-29T00:25:45.253Z,99.90
2022-09-29T00:28:17.953Z,99.90
2022-09-29T00:30:48.177Z,99.90
2022-09-29T00:33:18.372Z,99.90
2022-09-29T00:35:48.612Z,99.90
2022-09-29T00:38:18.786Z,99.90
2022-09-29T00:40:49.121Z,99.90
2022-09-29T00:43:25.992Z,99.90
2022-09-29T00:45:58.461Z,99.90
2022-09-29T00:48:34.795Z,99.90
2022-09-29T00:51:05.586Z,99.90
2022-09-29T00:53:36.951Z,99.90
2022-09-29T00:56:10.983Z,99.90
2022-09-29T00:58:48.163Z,99.90
2022-09-29T01:01:18.649Z,99.90
2022-09-29T01:03:51.108Z,99.90
2022-09-29T01:06:24.930Z,99.90
2022-09-29T01:09:01.967Z,99.90
2022-09-29T01:11:33.669Z,99.90
2022-09-29T01:14:09.521Z,99.90
2022-09-29T01:16:42.301Z,99.90
2022-09-29T01:19:19.226Z,99.90
2022-09-29T01:22:05.380Z,99.90
2022-09-29T01:25:01.516Z,99.90
2022-09-29T01:27:46.660Z,99.90
2022-09-29T01:30:24.354Z,99.90
2022-09-29T01:33:10.879Z,99.90
2022-09-29T01:35:51.367Z,99.90
2022-09-29T01:38:37.381Z,99.90
2022-09-29T01:41:11.717Z,99.90
2022-09-29T01:43:46.198Z,99.90
2022-09-29T01:46:23.215Z,99.90
2022-09-29T01:48:59.523Z,99.90
2022-09-29T01:51:39.208Z,99.90
2022-09-29T01:54:15.383Z,99.90
2022-09-29T01:56:52.651Z,99.90
2022-09-29T01:59:29.924Z,99.90
2022-09-29T02:02:05.759Z,99.90
2022-09-29T02:04:44.404Z,99.90
2022-09-29T02:07:19.728Z,99.90
2022-09-29T02:09:55.183Z,99.90
2022-09-29T02:12:30.241Z,99.90
2022-09-29T02:15:01.689Z,99.90
2022-09-29T02:17:36.698Z,99.90
2022-09-29T02:20:10.424Z,99.90
2022-09-29T02:22:41.359Z,99.90
2022-09-29T02:25:13.711Z,99.90
2022-09-29T02:27:45.048Z,99.90
2022-09-29T02:30:16.641Z,99.90
2022-09-29T02:32:47.061Z,99.90
2022-09-29T02:35:19.940Z,99.90
2022-09-29T02:38:00.818Z,99.90
2022-09-29T02:40:42.703Z,99.90
2022-09-29T02:43:27.072Z,99.90
2022-09-29T02:46:05.692Z,99.90
2022-09-29T02:48:56.831Z,99.90
2022-09-29T02:51:34.553Z,99.90
2022-09-29T02:54:22.581Z,99.90
2022-09-29T02:57:04.108Z,99.90
2022-09-29T02:59:40.592Z,99.90
2022-09-29T03:02:10.760Z,99.90
2022-09-29T03:04:41.007Z,99.90
2022-09-29T03:07:13.737Z,99.90
2022-09-29T03:09:44.691Z,99.90
2022-09-29T03:12:15.058Z,99.90
2022-09-29T03:14:45.174Z,99.90
2022-09-29T03:17:15.411Z,99.90
2022-09-29T03:19:45.724Z,99.90
2022-09-29T03:22:18.686Z,99.90
2022-09-29T03:24:48.829Z,99.90
2022-09-29T03:27:19.175Z,99.90
2022-09-29T03:29:50.600Z,99.90
2022-09-29T03:32:21.597Z,99.90
2022-09-29T03:34:51.665Z,99.90
2022-09-29T03:37:24.563Z,99.90
2022-09-29T03:39:54.678Z,99.90
2022-09-29T03:42:25.210Z,99.90
2022-09-29T03:44:55.296Z,99.90
2022-09-29T03:47:25.506Z,99.90
2022-09-29T03:49:55.611Z,99.90
2022-09-29T03:52:28.353Z,99.90
2022-09-29T03:54:58.449Z,99.90
2022-09-29T03:57:28.806Z,99.90
2022-09-29T03:59:59.071Z,99.90
2022-09-29T04:02:29.253Z,99.90
2022-09-29T04:04:59.336Z,99.90
2022-09-29T04:07:32.169Z,99.90
2022-09-29T04:10:02.089Z,99.90
2022-09-29T04:12:32.102Z,99.90
2022-09-29T04:15:02.163Z,99.90
2022-09-29T04:17:32.194Z,99.90
2022-09-29T04:20:02.271Z,99.90
2022-09-29T04:22:35.310Z,99.90
2022-09-29T04:25:05.316Z,99.90
2022-09-29T04:27:35.550Z,99.90
2022-09-29T04:30:05.670Z,99.90
2022-09-29T04:32:36.255Z,99.90
2022-09-29T04:35:06.926Z,99.90
2022-09-29T04:37:39.758Z,99.90
2022-09-29T04:40:11.905Z,99.90
2022-09-29T04:42:41.949Z,99.90
2022-09-29T04:45:12.887Z,99.90
2022-09-29T04:47:42.916Z,99.90
2022-09-29T04:50:13.215Z,99.90
2022-09-29T04:52:48.013Z,99.90
2022-09-29T04:55:18.270Z,99.90
2022-09-29T04:57:49.406Z,99.90
2022-09-29T05:00:20.005Z,99.90
2022-09-29T05:02:50.237Z,99.90
2022-09-29T05:05:20.829Z,99.90
2022-09-29T05:07:53.468Z,99.90
2022-09-29T05:10:23.469Z,99.90
2022-09-29T05:12:54.343Z,99.90
2022-09-29T05:15:26.117Z,99.90
2022-09-29T05:17:56.459Z,99.90
2022-09-29T05:20:30.689Z,99.90
2022-09-29T05:23:10.414Z,99.90
2022-09-29T05:25:40.599Z,99.90
2022-09-29T05:28:11.443Z,99.90
2022-09-29T05:30:42.165Z,99.90
2022-09-29T05:33:12.412Z,99.90
2022-09-29T05:35:43.328Z,99.90
2022-09-29T05:38:16.725Z,99.90
2022-09-29T05:40:46.756Z,99.90
2022-09-29T05:43:16.879Z,99.90
2022-09-29T05:45:46.958Z,99.90
2022-09-29T05:48:17.597Z,99.90
2022-09-29T05:50:47.653Z,99.90
2022-09-29T05:53:20.267Z,99.90
2022-09-29T05:55:50.289Z,99.90
2022-09-29T05:58:20.407Z,99.90
2022-09-29T06:00:50.589Z,99.90
2022-09-29T06:03:20.754Z,99.90
2022-09-29T06:05:50.835Z,99.90
2022-09-29T06:08:23.552Z,99.90
2022-09-29T06:10:53.585Z,99.90
2022-09-29T06:13:23.788Z,99.90
2022-09-29T06:15:53.909Z,99.90
2022-09-29T06:18:24.031Z,99.90
2022-09-29T06:20:54.171Z,99.90
2022-09-29T06:23:26.878Z,99.90
2022-09-29T06:25:59.403Z,99.90
2022-09-29T06:28:29.701Z,99.90
2022-09-29T06:31:03.465Z,99.90
2022-09-29T06:33:35.363Z,99.90
2022-09-29T06:36:20.800Z,99.90
2022-09-29T06:38:53.428Z,99.90
2022-09-29T06:41:23.539Z,99.90
2022-09-29T06:43:53.633Z,99.90
2022-09-29T06:46:23.963Z,99.90
2022-09-29T06:48:54.115Z,99.90
2022-09-29T06:51:33.481Z,99.90
2022-09-29T06:54:12.400Z,99.90
2022-09-29T06:56:43.304Z,99.90
2022-09-29T06:59:13.806Z,99.90
2022-09-29T07:01:44.033Z,99.90
2022-09-29T07:04:14.321Z,99.90
2022-09-29T07:06:45.868Z,99.90
2022-09-29T07:09:18.785Z,99.90
2022-09-29T07:11:52.578Z,99.90
2022-09-29T07:14:25.694Z,99.90
2022-09-29T07:16:56.424Z,99.90
2022-09-29T07:19:26.701Z,99.90
2022-09-29T07:21:57.050Z,99.90
2022-09-29T07:24:30.102Z,99.90
2022-09-29T07:27:00.239Z,99.90
2022-09-29T07:29:33.173Z,99.90
2022-09-29T07:32:03.463Z,99.90
2022-09-29T07:34:33.932Z,99.90
2022-09-29T07:37:04.047Z,99.90
2022-09-29T07:39:37.041Z,99.90
2022-09-29T07:42:09.290Z,99.90
2022-09-29T07:44:39.884Z,99.90
2022-09-29T07:47:09.998Z,99.90
2022-09-29T07:49:40.443Z,99.90
2022-09-29T07:52:10.562Z,99.90
2022-09-29T07:54:43.530Z,99.90
2022-09-29T07:57:13.582Z,99.90
2022-09-29T07:59:49.614Z,99.90
2022-09-29T08:02:22.649Z,99.90
2022-09-29T08:04:57.182Z,99.90
2022-09-29T08:07:30.148Z,99.90
2022-09-29T08:10:15.073Z,98.30
2022-09-29T08:12:46.831Z,94.70
2022-09-29T08:15:16.698Z,95.60
2022-09-29T08:17:46.871Z,93.80
2022-09-29T08:20:17.192Z,94.60
2022-09-29T08:22:48.365Z,91.50
2022-09-29T08:25:21.719Z,90.30
2022-09-29T08:27:55.727Z,89.60
2022-09-29T08:30:26.329Z,88.00
2022-09-29T08:32:56.977Z,84.50
2022-09-29T08:35:27.239Z,84.50
2022-09-29T08:37:57.874Z,81.30
2022-09-29T08:40:32.044Z,80.40
2022-09-29T08:43:10.816Z,75.30
2022-09-29T08:45:58.342Z,75.00
2022-09-29T08:48:35.065Z,72.90
2022-09-29T08:51:09.031Z,72.70
2022-09-29T08:53:58.120Z,71.80
2022-09-29T08:56:36.280Z,66.00
2022-09-29T08:59:06.448Z,64.90
2022-09-29T09:01:45.427Z,63.90
2022-09-29T09:04:38.253Z,65.00
2022-09-29T09:07:17.669Z,64.30
2022-09-29T09:10:02.668Z,61.60
2022-09-29T09:12:59.012Z,59.90
2022-09-29T09:15:50.617Z,59.00
2022-09-29T09:18:43.827Z,58.30
2022-09-29T09:21:21.972Z,56.20
2022-09-29T09:24:00.537Z,56.10
2022-09-29T09:26:39.729Z,54.00
2022-09-29T09:29:19.219Z,53.30
2022-09-29T09:31:55.464Z,51.10
2022-09-29T09:34:39.798Z,50.30
2022-09-29T09:37:17.335Z,48.40
2022-09-29T09:39:51.092Z,48.50
2022-09-29T09:42:26.027Z,47.30
2022-09-29T09:45:02.967Z,47.80
2022-09-29T09:47:37.808Z,46.80
2022-09-29T09:50:16.809Z,45.90
2022-09-29T09:52:50.107Z,44.00
2022-09-29T09:55:21.946Z,42.70
2022-09-29T09:58:05.797Z,41.60
2022-09-29T10:00:43.831Z,41.80
2022-09-29T10:03:17.702Z,41.80
2022-09-29T10:05:50.054Z,41.50
2022-09-29T10:08:26.662Z,40.90
2022-09-29T10:10:59.030Z,40.00
2022-09-29T10:13:31.225Z,42.20
2022-09-29T10:16:14.538Z,44.70
2022-09-29T10:18:46.747Z,46.60
2022-09-29T10:21:24.621Z,45.70
2022-09-29T10:23:56.781Z,47.30
2022-09-29T10:26:29.631Z,48.90
2022-09-29T10:29:02.785Z,47.70
2022-09-29T10:31:37.935Z,47.90
2022-09-29T10:34:19.894Z,49.50
2022-09-29T10:36:56.247Z,52.50
2022-09-29T10:39:44.203Z,53.40
2022-09-29T10:42:25.147Z,54.80
2022-09-29T10:44:57.501Z,55.30
2022-09-29T10:47:30.836Z,56.30
2022-09-29T10:50:24.310Z,55.30
2022-09-29T10:52:57.389Z,57.40
2022-09-29T10:55:30.243Z,56.70
2022-09-29T10:58:02.740Z,59.00
2022-09-29T11:00:37.707Z,59.20
2022-09-29T11:03:22.947Z,60.50
2022-09-29T11:05:58.809Z,60.30
2022-09-29T11:08:29.099Z,60.00
2022-09-29T11:11:10.178Z,61.90
2022-09-29T11:13:42.567Z,61.80
2022-09-29T11:16:19.579Z,62.30
2022-09-29T11:18:56.046Z,60.50
2022-09-29T11:22:03.662Z,57.90
2022-09-29T11:24:53.485Z,56.30
2022-09-29T11:27:41.403Z,56.90
2022-09-29T11:30:16.292Z,58.10
2022-09-29T11:33:01.408Z,55.20
2022-09-29T11:35:47.990Z,55.10
2022-09-29T11:38:44.352Z,54.90
2022-09-29T11:41:36.573Z,55.10
2022-09-29T11:44:19.932Z,54.80
2022-09-29T11:46:58.119Z,55.90
2022-09-29T11:49:56.228Z,57.40
2022-09-29T11:52:47.694Z,56.90
2022-09-29T11:55:31.888Z,58.10
2022-09-29T11:58:17.248Z,57.80
2022-09-29T12:01:01.376Z,59.30
2022-09-29T12:03:43.535Z,58.80
2022-09-29T12:06:42.245Z,61.90
2022-09-29T12:09:41.541Z,61.30
2022-09-29T12:12:23.681Z,60.60
2022-09-29T12:15:07.903Z,61.90
2022-09-29T12:17:42.088Z,63.20
2022-09-29T12:20:24.201Z,60.90
2022-09-29T12:22:56.451Z,61.40
2022-09-29T12:25:32.154Z,64.30
2022-09-29T12:28:06.031Z,64.10
2022-09-29T12:30:44.656Z,64.30
2022-09-29T12:33:21.339Z,66.40
2022-09-29T12:36:00.610Z,64.30
2022-09-29T12:38:37.543Z,64.70
2022-09-29T12:41:17.071Z,63.50
2022-09-29T12:43:52.468Z,66.00
2022-09-29T12:46:35.970Z,65.50
2022-09-29T12:49:11.896Z,63.90
2022-09-29T12:51:47.368Z,64.60
2022-09-29T12:54:21.785Z,64.10
2022-09-29T12:56:59.571Z,64.80
2022-09-29T12:59:38.395Z,64.50
2022-09-29T13:02:29.547Z,65.10
2022-09-29T13:05:19.119Z,65.30
2022-09-29T13:08:19.405Z,66.10
2022-09-29T13:11:04.046Z,64.40
2022-09-29T13:14:03.935Z,64.90
2022-09-29T13:16:49.318Z,65.80
2022-09-29T13:19:59.085Z,65.80
2022-09-29T13:23:11.777Z,64.90
2022-09-29T13:25:51.045Z,65.50
2022-09-29T13:28:33.372Z,62.90
2022-09-29T13:31:10.203Z,65.10
2022-09-29T13:33:40.519Z,64.10
2022-09-29T13:36:11.152Z,63.80
2022-09-29T13:38:43.097Z,64.80
2022-09-29T13:41:18.851Z,63.20
2022-09-29T13:44:26.537Z,64.60
2022-09-29T13:46:59.982Z,64.90
2022-09-29T13:49:32.244Z,65.00
2022-09-29T13:52:03.937Z,66.10
2022-09-29T13:54:44.249Z,65.50
2022-09-29T13:57:32.181Z,64.80
2022-09-29T14:00:23.344Z,64.60
2022-09-29T14:03:09.817Z,66.70
2022-09-29T14:05:57.252Z,65.00
2022-09-29T14:08:39.365Z,62.70
2022-09-29T14:11:27.168Z,65.70
2022-09-29T14:14:02.517Z,64.70
2022-09-29T14:16:56.230Z,65.40
2022-09-29T14:19:44.899Z,64.80
2022-09-29T14:22:44.981Z,67.30
2022-09-29T14:25:36.401Z,65.40
2022-09-29T14:28:09.682Z,65.00
2022-09-29T14:30:51.168Z,65.50
2022-09-29T14:33:25.153Z,66.50
2022-09-29T14:36:08.088Z,67.40
2022-09-29T14:38:41.894Z,66.90
2022-09-29T14:41:32.495Z,67.10
2022-09-29T14:44:08.323Z,66.50
2022-09-29T14:47:14.519Z,66.90
2022-09-29T14:50:32.510Z,67.70
2022-09-29T14:53:23.560Z,68.00
2022-09-29T14:56:04.080Z,66.80
2022-09-29T14:58:58.523Z,67.00
2022-09-29T15:01:30.797Z,67.90
2022-09-29T15:04:08.640Z,67.00
2022-09-29T15:06:47.985Z,66.00
2022-09-29T15:09:24.228Z,65.50
2022-09-29T15:11:58.238Z,67.20
2022-09-29T15:14:30.006Z,67.00
2022-09-29T15:17:10.517Z,65.80
2022-09-29T15:19:56.433Z,67.40
2022-09-29T15:22:55.035Z,69.20
2022-09-29T15:25:32.273Z,69.60
2022-09-29T15:28:05.458Z,71.00
2022-09-29T15:30:36.610Z,72.80
2022-09-29T15:33:29.705Z,73.50
2022-09-29T15:36:02.059Z,73.90
2022-09-29T15:38:38.842Z,75.20
2022-09-29T15:41:20.262Z,75.90
2022-09-29T15:43:58.013Z,76.70
2022-09-29T15:46:37.435Z,77.60
2022-09-29T15:49:19.461Z,79.30
2022-09-29T15:52:00.529Z,78.80
2022-09-29T15:54:34.656Z,79.80
2022-09-29T15:57:19.886Z,79.10
2022-09-29T15:59:53.362Z,79.70
2022-09-29T16:02:28.682Z,79.30
2022-09-29T16:05:01.306Z,80.80
2022-09-29T16:07:34.682Z,82.00
2022-09-29T16:10:09.733Z,83.30
2022-09-29T16:12:49.830Z,84.80
2022-09-29T16:15:24.643Z,87.10
2022-09-29T16:17:55.599Z,89.50
2022-09-29T16:20:30.274Z,90.80
2022-09-29T16:23:08.388Z,91.80
2022-09-29T16:25:38.576Z,93.00
2022-09-29T16:28:29.636Z,93.50
2022-09-29T16:31:05.664Z,94.10
2022-09-29T16:33:37.290Z,94.40
2022-09-29T16:36:12.404Z,94.80
2022-09-29T16:38:44.255Z,95.60
2022-09-29T16:41:24.171Z,96.00
2022-09-29T16:44:10.765Z,96.60
2022-09-29T16:46:46.746Z,96.60
2022-09-29T16:49:23.057Z,96.50
2022-09-29T16:51:53.784Z,97.20
2022-09-29T16:54:27.640Z,97.30
2022-09-29T16:57:21.551Z,96.70
2022-09-29T16:59:56.199Z,97.20
2022-09-29T17:02:27.541Z,97.60
2022-09-29T17:04:59.116Z,98.00
2022-09-29T17:07:30.623Z,98.40
2022-09-29T17:10:02.442Z,98.90
2022-09-29T17:12:34.274Z,98.90
2022-09-29T17:15:07.474Z,99.10
2022-09-29T17:17:38.433Z,99.90
2022-09-29T17:20:14.644Z,99.90
2022-09-29T17:22:45.350Z,99.90
2022-09-29T17:25:16.442Z,99.90
2022-09-29T17:27:59.864Z,99.90
2022-09-29T17:30:32.789Z,99.90
2022-09-29T17:33:03.925Z,99.90
2022-09-29T17:35:36.425Z,99.90
2022-09-29T17:38:09.560Z,99.90
2022-09-29T17:40:45.299Z,99.90
2022-09-29T17:43:15.909Z,99.90
2022-09-29T17:45:49.165Z,99.90
2022-09-29T17:48:19.878Z,99.90
2022-09-29T17:50:51.478Z,99.90
2022-09-29T17:53:22.066Z,99.90
2022-09-29T17:55:55.088Z,99.90
2022-09-29T17:58:25.682Z,99.90
2022-09-29T18:00:59.794Z,99.90
2022-09-29T18:03:29.831Z,99.90
2022-09-29T18:06:00.225Z,99.90
2022-09-29T18:08:32.174Z,99.90
2022-09-29T18:11:03.691Z,99.90
2022-09-29T18:13:34.364Z,99.90
2022-09-29T18:16:07.241Z,99.90
2022-09-29T18:18:37.372Z,99.90
2022-09-29T18:21:08.258Z,99.90
2022-09-29T18:23:38.085Z,99.90
2022-09-29T18:26:09.842Z,99.90
2022-09-29T18:28:40.447Z,99.90
2022-09-29T18:31:18.365Z,99.90
2022-09-29T18:33:48.481Z,99.90
2022-09-29T18:36:18.611Z,99.90
2022-09-29T18:38:48.792Z,99.90
2022-09-29T18:41:21.623Z,99.90
2022-09-29T18:43:55.063Z,99.90
2022-09-29T18:46:33.343Z,99.90
2022-09-29T18:49:04.164Z,99.90
2022-09-29T18:51:34.567Z,99.90
2022-09-29T18:54:05.843Z,99.90
2022-09-29T18:56:36.324Z,99.90
2022-09-29T18:59:07.044Z,99.90
2022-09-29T19:01:40.141Z,99.90
2022-09-29T19:04:11.609Z,99.90
2022-09-29T19:06:41.772Z,99.90
2022-09-29T19:09:11.933Z,99.90
2022-09-29T19:11:42.041Z,99.90
2022-09-29T19:14:12.388Z,99.90
2022-09-29T19:16:46.095Z,99.90
2022-09-29T19:19:18.594Z,99.90
2022-09-29T19:21:48.757Z,99.90
2022-09-29T19:24:19.926Z,99.90
2022-09-29T19:26:49.974Z,99.90
2022-09-29T19:29:20.697Z,99.90
2022-09-29T19:31:53.478Z,99.90
2022-09-29T19:34:23.603Z,99.90
2022-09-29T19:36:53.891Z,99.90
2022-09-29T19:39:25.175Z,99.90
2022-09-29T19:41:55.338Z,99.90
2022-09-29T19:44:25.688Z,99.90
2022-09-29T19:46:59.499Z,99.90
2022-09-29T19:49:34.818Z,99.90
2022-09-29T19:52:02.843Z,99.90
2022-09-29T19:54:46.333Z,99.90
2022-09-29T19:57:18.563Z,99.90
2022-09-29T19:59:49.452Z,99.90
2022-09-29T20:02:22.283Z,99.90
2022-09-29T20:04:52.772Z,99.90
2022-09-29T20:07:22.942Z,99.90
2022-09-29T20:12:24.647Z,99.90
2022-09-29T20:14:54.925Z,99.90
2022-09-29T20:17:27.700Z,99.90
2022-09-29T20:19:57.968Z,99.90
2022-09-29T20:22:31.656Z,99.90
2022-09-29T20:25:02.451Z,99.90
2022-09-29T20:27:32.739Z,99.90
2022-09-29T20:30:03.178Z,99.90
2022-09-29T20:32:36.695Z,99.90
2022-09-29T20:35:07.565Z,99.90
2022-09-29T20:37:40.147Z,99.90
2022-09-29T20:40:11.452Z,99.90
2022-09-29T20:42:42.155Z,99.90
2022-09-29T20:45:14.236Z,99.90
2022-09-29T20:47:46.960Z,99.90
2022-09-29T20:50:17.787Z,99.90
2022-09-29T20:52:48.246Z,99.90
2022-09-29T20:55:18.566Z,99.90
2022-09-29T20:57:48.604Z,99.90
2022-09-29T21:00:18.928Z,99.90
2022-09-29T21:02:52.128Z,99.90
2022-09-29T21:05:22.311Z,99.90
2022-09-29T21:07:52.387Z,99.90
2022-09-29T21:10:22.517Z,99.90
2022-09-29T21:12:52.606Z,99.90
2022-09-29T21:15:23.304Z,99.90
2022-09-29T21:17:56.410Z,99.90
2022-09-29T21:20:26.619Z,99.90
2022-09-29T21:22:56.788Z,99.90
2022-09-29T21:25:27.695Z,99.90
2022-09-29T21:27:57.835Z,99.90
2022-09-29T21:30:28.346Z,99.90
2022-09-29T21:33:01.165Z,99.90
2022-09-29T21:35:31.362Z,99.90
2022-09-29T21:38:01.460Z,99.90
2022-09-29T21:40:31.541Z,99.90
2022-09-29T21:43:01.637Z,99.90
2022-09-29T21:45:31.703Z,99.90
2022-09-29T21:48:13.455Z,99.90
2022-09-29T21:50:43.537Z,99.90
2022-09-29T21:53:14.012Z,99.90
2022-09-29T21:58:15.913Z,99.90
2022-09-29T22:00:46.020Z,99.90
2022-09-29T22:03:18.871Z,99.90
2022-09-29T22:05:49.181Z,99.90
2022-09-29T22:08:19.459Z,99.90
2022-09-29T22:10:52.005Z,99.90
2022-09-29T22:13:25.058Z,99.90
2022-09-29T22:15:55.602Z,99.90
2022-09-29T22:18:40.885Z,99.90
2022-09-29T22:21:14.918Z,99.90
2022-09-29T22:23:45.164Z,99.90
2022-09-29T22:26:17.634Z,99.90
2022-09-29T22:28:48.265Z,99.90
2022-09-29T22:31:19.284Z,99.90
2022-09-29T22:33:58.070Z,99.90
2022-09-29T22:36:30.220Z,99.90
2022-09-29T22:39:00.336Z,99.90
2022-09-29T22:41:30.531Z,99.90
2022-09-29T22:44:02.276Z,99.90
2022-09-29T22:46:35.276Z,99.90
2022-09-29T22:49:08.417Z,99.90
2022-09-29T22:51:38.783Z,99.90
2022-09-29T22:54:09.388Z,99.90
2022-09-29T22:56:40.752Z,99.90
2022-09-29T22:59:10.974Z,99.90
2022-09-29T23:01:41.074Z,99.90
2022-09-29T23:04:13.857Z,99.90
2022-09-29T23:06:44.230Z,99.90
2022-09-29T23:09:14.829Z,99.90
2022-09-29T23:11:45.217Z,99.90
2022-09-29T23:14:15.687Z,99.90
2022-09-29T23:16:45.920Z,99.90
2022-09-29T23:19:20.016Z,99.90
2022-09-29T23:21:50.288Z,99.90
2022-09-29T23:24:20.703Z,99.90
2022-09-29T23:26:51.843Z,99.90
2022-09-29T23:29:22.371Z,99.90
2022-09-29T23:31:52.836Z,99.90
2022-09-29T23:34:25.994Z,99.90
2022-09-29T23:36:56.063Z,99.90
2022-09-29T23:39:23.828Z,99.90
2022-09-29T23:41:55.192Z,99.90
2022-09-29T23:44:27.175Z,99.90
2022-09-29T23:46:58.302Z,99.90
2022-09-29T23:49:31.746Z,99.90
2022-09-29T23:52:04.449Z,99.90
2022-09-29T23:54:34.515Z,99.90
2022-09-29T23:57:04.495Z,99.90
2022-09-29T23:59:34.676Z,99.90
